sensor_id;sensor_type;location;lat;lon;timestamp;temperature;humidity
60242;SHT30;46103;52.076;113.488;2023-12-14T00:00:22;-30.04;64.88
60242;SHT30;46103;52.076;113.488;2023-12-14T00:03:33;-30.29;62.70
60242;SHT30;46103;52.076;113.488;2023-12-14T00:06:44;-30.52;60.60
60242;SHT30;46103;52.076;113.488;2023-12-14T00:09:56;-30.28;62.51
60242;SHT30;46103;52.076;113.488;2023-12-14T00:13:10;-30.02;65.03
60242;SHT30;46103;52.076;113.488;2023-12-14T00:16:22;-30.21;65.39
60242;SHT30;46103;52.076;113.488;2023-12-14T00:19:36;-30.14;63.63
60242;SHT30;46103;52.076;113.488;2023-12-14T00:22:49;-30.18;64.18
60242;SHT30;46103;52.076;113.488;2023-12-14T00:26:00;-30.19;63.56
60242;SHT30;46103;52.076;113.488;2023-12-14T00:29:10;-30.46;62.89
60242;SHT30;46103;52.076;113.488;2023-12-14T00:32:19;-30.36;61.41
60242;SHT30;46103;52.076;113.488;2023-12-14T00:35:31;-30.14;64.72
60242;SHT30;46103;52.076;113.488;2023-12-14T00:38:44;-30.14;65.47
60242;SHT30;46103;52.076;113.488;2023-12-14T00:41:55;-29.84;65.41
60242;SHT30;46103;52.076;113.488;2023-12-14T00:45:06;-29.55;67.22
60242;SHT30;46103;52.076;113.488;2023-12-14T00:48:19;-29.25;68.08
60242;SHT30;46103;52.076;113.488;2023-12-14T00:51:30;-29.06;68.20
60242;SHT30;46103;52.076;113.488;2023-12-14T00:54:42;-28.89;67.81
60242;SHT30;46103;52.076;113.488;2023-12-14T00:57:54;-28.72;67.27
60242;SHT30;46103;52.076;113.488;2023-12-14T01:01:05;-28.58;66.81
60242;SHT30;46103;52.076;113.488;2023-12-14T01:04:20;-28.40;66.20
60242;SHT30;46103;52.076;113.488;2023-12-14T01:07:30;-28.28;65.52
60242;SHT30;46103;52.076;113.488;2023-12-14T01:10:41;-28.71;63.49
60242;SHT30;46103;52.076;113.488;2023-12-14T01:13:54;-28.55;63.18
60242;SHT30;46103;52.076;113.488;2023-12-14T01:17:05;-28.65;63.54
60242;SHT30;46103;52.076;113.488;2023-12-14T01:20:14;-28.65;64.09
60242;SHT30;46103;52.076;113.488;2023-12-14T01:23:18;-28.76;63.66
60242;SHT30;46103;52.076;113.488;2023-12-14T01:26:24;-28.55;63.69
60242;SHT30;46103;52.076;113.488;2023-12-14T01:29:36;-28.34;63.81
60242;SHT30;46103;52.076;113.488;2023-12-14T01:32:48;-28.09;63.76
60242;SHT30;46103;52.076;113.488;2023-12-14T01:35:53;-28.16;62.50
60242;SHT30;46103;52.076;113.488;2023-12-14T01:38:56;-28.02;61.56
60242;SHT30;46103;52.076;113.488;2023-12-14T01:45:32;-27.78;61.86
60242;SHT30;46103;52.076;113.488;2023-12-14T01:48:36;-27.71;61.66
60242;SHT30;46103;52.076;113.488;2023-12-14T01:51:41;-27.64;61.18
60242;SHT30;46103;52.076;113.488;2023-12-14T01:54:46;-27.51;60.98
60242;SHT30;46103;52.076;113.488;2023-12-14T01:57:55;-27.48;60.44
60242;SHT30;46103;52.076;113.488;2023-12-14T02:01:20;-27.37;60.51
60242;SHT30;46103;52.076;113.488;2023-12-14T02:04:29;-27.22;60.34
60242;SHT30;46103;52.076;113.488;2023-12-14T02:07:38;-27.13;60.06
60242;SHT30;46103;52.076;113.488;2023-12-14T02:10:48;-27.20;59.17
60242;SHT30;46103;52.076;113.488;2023-12-14T02:14:03;-27.05;59.21
60242;SHT30;46103;52.076;113.488;2023-12-14T02:17:10;-26.84;58.93
60242;SHT30;46103;52.076;113.488;2023-12-14T02:20:18;-26.63;58.72
60242;SHT30;46103;52.076;113.488;2023-12-14T02:23:45;-26.65;57.94
60242;SHT30;46103;52.076;113.488;2023-12-14T02:26:52;-26.57;57.86
60242;SHT30;46103;52.076;113.488;2023-12-14T02:30:09;-26.40;57.68
60242;SHT30;46103;52.076;113.488;2023-12-14T02:33:22;-26.50;56.93
60242;SHT30;46103;52.076;113.488;2023-12-14T02:36:34;-26.46;56.81
60242;SHT30;46103;52.076;113.488;2023-12-14T02:39:43;-26.32;56.64
60242;SHT30;46103;52.076;113.488;2023-12-14T02:42:50;-26.11;56.47
60242;SHT30;46103;52.076;113.488;2023-12-14T02:45:54;-25.98;56.02
60242;SHT30;46103;52.076;113.488;2023-12-14T02:49:04;-25.96;55.18
60242;SHT30;46103;52.076;113.488;2023-12-14T02:52:08;-25.90;55.26
60242;SHT30;46103;52.076;113.488;2023-12-14T02:55:12;-25.83;55.64
60242;SHT30;46103;52.076;113.488;2023-12-14T02:58:19;-25.97;55.91
60242;SHT30;46103;52.076;113.488;2023-12-14T03:01:23;-25.93;56.38
60242;SHT30;46103;52.076;113.488;2023-12-14T03:04:26;-26.22;56.25
60242;SHT30;46103;52.076;113.488;2023-12-14T03:07:30;-26.07;57.02
60242;SHT30;46103;52.076;113.488;2023-12-14T03:10:34;-26.07;56.88
60242;SHT30;46103;52.076;113.488;2023-12-14T03:13:39;-25.97;56.75
60242;SHT30;46103;52.076;113.488;2023-12-14T03:16:56;-25.60;56.95
60242;SHT30;46103;52.076;113.488;2023-12-14T03:20:14;-25.37;56.41
60242;SHT30;46103;52.076;113.488;2023-12-14T03:23:29;-25.14;55.65
60242;SHT30;46103;52.076;113.488;2023-12-14T03:26:52;-24.96;54.76
60242;SHT30;46103;52.076;113.488;2023-12-14T03:30:10;-24.89;53.81
60242;SHT30;46103;52.076;113.488;2023-12-14T03:33:20;-24.73;53.37
60242;SHT30;46103;52.076;113.488;2023-12-14T03:36:28;-24.75;52.96
60242;SHT30;46103;52.076;113.488;2023-12-14T03:39:37;-24.68;53.19
60242;SHT30;46103;52.076;113.488;2023-12-14T03:42:46;-24.53;53.46
60242;SHT30;46103;52.076;113.488;2023-12-14T03:45:49;-24.34;53.72
60242;SHT30;46103;52.076;113.488;2023-12-14T03:48:52;-24.27;53.67
60242;SHT30;46103;52.076;113.488;2023-12-14T03:51:56;-24.30;53.86
60242;SHT30;46103;52.076;113.488;2023-12-14T03:55:00;-24.47;54.18
60242;SHT30;46103;52.076;113.488;2023-12-14T03:58:03;-24.45;54.94
60242;SHT30;46103;52.076;113.488;2023-12-14T04:01:07;-24.41;54.68
60242;SHT30;46103;52.076;113.488;2023-12-14T04:04:11;-24.30;55.09
60242;SHT30;46103;52.076;113.488;2023-12-14T04:07:19;-24.14;55.33
60242;SHT30;46103;52.076;113.488;2023-12-14T04:10:23;-24.03;55.73
60242;SHT30;46103;52.076;113.488;2023-12-14T04:13:26;-23.79;55.65
60242;SHT30;46103;52.076;113.488;2023-12-14T04:16:30;-23.71;55.00
60242;SHT30;46103;52.076;113.488;2023-12-14T04:19:41;-23.74;54.78
60242;SHT30;46103;52.076;113.488;2023-12-14T04:22:45;-23.76;54.61
60242;SHT30;46103;52.076;113.488;2023-12-14T04:25:49;-23.72;55.30
60242;SHT30;46103;52.076;113.488;2023-12-14T04:28:53;-23.62;55.26
60242;SHT30;46103;52.076;113.488;2023-12-14T04:31:57;-23.38;55.44
60242;SHT30;46103;52.076;113.488;2023-12-14T04:35:00;-23.20;54.74
60242;SHT30;46103;52.076;113.488;2023-12-14T04:38:04;-23.09;54.97
60242;SHT30;46103;52.076;113.488;2023-12-14T04:41:08;-22.77;54.83
60242;SHT30;46103;52.076;113.488;2023-12-14T04:44:11;-22.69;54.27
60242;SHT30;46103;52.076;113.488;2023-12-14T04:47:15;-22.65;54.83
60242;SHT30;46103;52.076;113.488;2023-12-14T04:50:19;-22.50;54.91
60242;SHT30;46103;52.076;113.488;2023-12-14T04:53:24;-22.19;54.38
60242;SHT30;46103;52.076;113.488;2023-12-14T04:56:28;-22.12;54.01
60242;SHT30;46103;52.076;113.488;2023-12-14T04:59:31;-21.88;53.89
60242;SHT30;46103;52.076;113.488;2023-12-14T05:02:35;-21.67;53.88
60242;SHT30;46103;52.076;113.488;2023-12-14T05:05:39;-21.68;53.69
60242;SHT30;46103;52.076;113.488;2023-12-14T05:08:44;-21.67;53.15
60242;SHT30;46103;52.076;113.488;2023-12-14T05:11:51;-21.70;53.34
60242;SHT30;46103;52.076;113.488;2023-12-14T05:14:58;-21.43;53.46
60242;SHT30;46103;52.076;113.488;2023-12-14T05:18:04;-21.18;52.95
60242;SHT30;46103;52.076;113.488;2023-12-14T05:21:15;-21.08;52.12
60242;SHT30;46103;52.076;113.488;2023-12-14T05:24:21;-20.99;51.81
60242;SHT30;46103;52.076;113.488;2023-12-14T05:27:26;-20.96;51.92
60242;SHT30;46103;52.076;113.488;2023-12-14T05:30:33;-20.95;51.72
60242;SHT30;46103;52.076;113.488;2023-12-14T05:33:42;-20.84;51.53
60242;SHT30;46103;52.076;113.488;2023-12-14T05:36:48;-20.71;51.48
60242;SHT30;46103;52.076;113.488;2023-12-14T05:39:54;-20.66;52.09
60242;SHT30;46103;52.076;113.488;2023-12-14T05:42:59;-20.42;51.66
60242;SHT30;46103;52.076;113.488;2023-12-14T05:46:05;-20.32;51.24
60242;SHT30;46103;52.076;113.488;2023-12-14T05:49:11;-20.21;50.87
60242;SHT30;46103;52.076;113.488;2023-12-14T05:52:14;-20.04;51.14
60242;SHT30;46103;52.076;113.488;2023-12-14T05:55:18;-19.88;50.76
60242;SHT30;46103;52.076;113.488;2023-12-14T05:58:24;-19.80;50.31
60242;SHT30;46103;52.076;113.488;2023-12-14T06:01:31;-19.83;49.97
60242;SHT30;46103;52.076;113.488;2023-12-14T06:04:35;-19.80;50.26
60242;SHT30;46103;52.076;113.488;2023-12-14T06:07:39;-19.73;50.43
60242;SHT30;46103;52.076;113.488;2023-12-14T06:10:43;-19.63;50.46
60242;SHT30;46103;52.076;113.488;2023-12-14T06:13:48;-19.46;50.43
60242;SHT30;46103;52.076;113.488;2023-12-14T06:16:51;-19.39;50.05
60242;SHT30;46103;52.076;113.488;2023-12-14T06:19:55;-19.40;49.87
60242;SHT30;46103;52.076;113.488;2023-12-14T06:22:58;-19.43;49.64
60242;SHT30;46103;52.076;113.488;2023-12-14T06:26:03;-19.42;50.04
60242;SHT30;46103;52.076;113.488;2023-12-14T06:29:07;-19.40;50.65
60242;SHT30;46103;52.076;113.488;2023-12-14T06:32:10;-19.38;51.00
60242;SHT30;46103;52.076;113.488;2023-12-14T06:35:14;-19.42;50.37
60242;SHT30;46103;52.076;113.488;2023-12-14T06:38:18;-19.39;50.37
60242;SHT30;46103;52.076;113.488;2023-12-14T06:41:23;-19.36;50.42
60242;SHT30;46103;52.076;113.488;2023-12-14T06:44:26;-19.29;50.66
60242;SHT30;46103;52.076;113.488;2023-12-14T06:47:30;-19.21;50.87
60242;SHT30;46103;52.076;113.488;2023-12-14T06:50:34;-19.08;51.06
60242;SHT30;46103;52.076;113.488;2023-12-14T06:53:43;-19.02;50.63
60242;SHT30;46103;52.076;113.488;2023-12-14T06:56:47;-19.04;50.08
60242;SHT30;46103;52.076;113.488;2023-12-14T06:59:51;-19.04;49.98
60242;SHT30;46103;52.076;113.488;2023-12-14T07:02:55;-19.05;49.90
60242;SHT30;46103;52.076;113.488;2023-12-14T07:06:01;-19.25;49.51
60242;SHT30;46103;52.076;113.488;2023-12-14T07:09:10;-19.36;49.46
60242;SHT30;46103;52.076;113.488;2023-12-14T07:12:19;-19.40;49.93
60242;SHT30;46103;52.076;113.488;2023-12-14T07:15:29;-19.42;49.94
60242;SHT30;46103;52.076;113.488;2023-12-14T07:18:40;-19.56;49.44
60242;SHT30;46103;52.076;113.488;2023-12-14T07:21:50;-19.71;49.86
60242;SHT30;46103;52.076;113.488;2023-12-14T07:25:00;-19.86;50.17
60242;SHT30;46103;52.076;113.488;2023-12-14T07:28:10;-19.97;50.72
60242;SHT30;46103;52.076;113.488;2023-12-14T07:31:20;-20.01;51.02
60242;SHT30;46103;52.076;113.488;2023-12-14T07:34:29;-20.11;51.19
60242;SHT30;46103;52.076;113.488;2023-12-14T07:37:40;-20.21;51.16
60242;SHT30;46103;52.076;113.488;2023-12-14T07:40:50;-20.26;51.14
60242;SHT30;46103;52.076;113.488;2023-12-14T07:44:00;-20.28;51.48
60242;SHT30;46103;52.076;113.488;2023-12-14T07:47:11;-20.42;51.60
60242;SHT30;46103;52.076;113.488;2023-12-14T07:50:22;-20.53;51.71
60242;SHT30;46103;52.076;113.488;2023-12-14T07:53:32;-20.67;52.01
60242;SHT30;46103;52.076;113.488;2023-12-14T07:56:43;-20.74;52.58
60242;SHT30;46103;52.076;113.488;2023-12-14T07:59:55;-20.88;52.76
60242;SHT30;46103;52.076;113.488;2023-12-14T08:03:10;-20.99;52.92
60242;SHT30;46103;52.076;113.488;2023-12-14T08:06:24;-21.15;54.13
60242;SHT30;46103;52.076;113.488;2023-12-14T08:09:36;-21.44;53.91
60242;SHT30;46103;52.076;113.488;2023-12-14T08:12:46;-21.99;53.95
60242;SHT30;46103;52.076;113.488;2023-12-14T08:15:57;-22.19;55.26
60242;SHT30;46103;52.076;113.488;2023-12-14T08:19:06;-22.41;56.63
60242;SHT30;46103;52.076;113.488;2023-12-14T08:22:17;-22.50;57.64
60242;SHT30;46103;52.076;113.488;2023-12-14T08:25:29;-22.57;57.30
60242;SHT30;46103;52.076;113.488;2023-12-14T08:28:40;-22.64;57.36
60242;SHT30;46103;52.076;113.488;2023-12-14T08:31:50;-22.71;57.90
60242;SHT30;46103;52.076;113.488;2023-12-14T08:35:07;-22.78;58.58
60242;SHT30;46103;52.076;113.488;2023-12-14T08:38:17;-22.82;58.82
60242;SHT30;46103;52.076;113.488;2023-12-14T08:41:26;-22.85;58.76
60242;SHT30;46103;52.076;113.488;2023-12-14T08:44:34;-22.89;59.20
60242;SHT30;46103;52.076;113.488;2023-12-14T08:47:44;-23.05;59.06
60242;SHT30;46103;52.076;113.488;2023-12-14T08:50:53;-23.16;59.87
60242;SHT30;46103;52.076;113.488;2023-12-14T08:54:03;-23.16;60.49
60242;SHT30;46103;52.076;113.488;2023-12-14T08:57:12;-23.19;60.87
60242;SHT30;46103;52.076;113.488;2023-12-14T09:00:22;-23.16;61.91
60242;SHT30;46103;52.076;113.488;2023-12-14T09:03:31;-23.15;62.52
60242;SHT30;46103;52.076;113.488;2023-12-14T09:06:41;-23.16;62.16
60242;SHT30;46103;52.076;113.488;2023-12-14T09:09:51;-23.15;62.04
60242;SHT30;46103;52.076;113.488;2023-12-14T09:13:01;-23.23;61.24
60242;SHT30;46103;52.076;113.488;2023-12-14T09:16:07;-23.23;61.24
60242;SHT30;46103;52.076;113.488;2023-12-14T09:19:12;-23.24;61.94
60242;SHT30;46103;52.076;113.488;2023-12-14T09:22:21;-23.22;62.77
60242;SHT30;46103;52.076;113.488;2023-12-14T09:25:30;-23.23;63.23
60242;SHT30;46103;52.076;113.488;2023-12-14T09:28:41;-23.23;62.94
60242;SHT30;46103;52.076;113.488;2023-12-14T09:31:52;-23.23;62.83
60242;SHT30;46103;52.076;113.488;2023-12-14T09:35:02;-23.23;63.00
60242;SHT30;46103;52.076;113.488;2023-12-14T09:38:14;-23.36;63.23
60242;SHT30;46103;52.076;113.488;2023-12-14T09:41:27;-23.48;63.54
60242;SHT30;46103;52.076;113.488;2023-12-14T09:44:37;-23.58;63.58
60242;SHT30;46103;52.076;113.488;2023-12-14T09:47:46;-23.64;63.32
60242;SHT30;46103;52.076;113.488;2023-12-14T09:50:55;-23.76;63.02
60242;SHT30;46103;52.076;113.488;2023-12-14T09:54:02;-23.82;63.11
60242;SHT30;46103;52.076;113.488;2023-12-14T09:57:06;-23.83;63.18
60242;SHT30;46103;52.076;113.488;2023-12-14T10:00:13;-23.89;63.36
60242;SHT30;46103;52.076;113.488;2023-12-14T10:03:34;-23.85;64.01
60242;SHT30;46103;52.076;113.488;2023-12-14T10:06:39;-23.79;64.23
60242;SHT30;46103;52.076;113.488;2023-12-14T10:09:43;-23.74;64.01
60242;SHT30;46103;52.076;113.488;2023-12-14T10:12:53;-23.66;63.89
60242;SHT30;46103;52.076;113.488;2023-12-14T10:15:58;-23.64;63.98
60242;SHT30;46103;52.076;113.488;2023-12-14T10:19:02;-23.62;63.92
60242;SHT30;46103;52.076;113.488;2023-12-14T10:22:06;-23.61;64.13
60242;SHT30;46103;52.076;113.488;2023-12-14T10:25:19;-23.55;63.94
60242;SHT30;46103;52.076;113.488;2023-12-14T10:28:27;-23.54;63.77
60242;SHT30;46103;52.076;113.488;2023-12-14T10:31:31;-23.51;64.12
60242;SHT30;46103;52.076;113.488;2023-12-14T10:34:35;-23.51;63.91
60242;SHT30;46103;52.076;113.488;2023-12-14T10:37:39;-23.55;64.47
60242;SHT30;46103;52.076;113.488;2023-12-14T10:40:44;-23.50;64.81
60242;SHT30;46103;52.076;113.488;2023-12-14T10:43:50;-23.47;64.29
60242;SHT30;46103;52.076;113.488;2023-12-14T10:47:17;-23.47;63.07
60242;SHT30;46103;52.076;113.488;2023-12-14T10:50:22;-23.44;62.19
60242;SHT30;46103;52.076;113.488;2023-12-14T10:53:26;-23.41;61.88
60242;SHT30;46103;52.076;113.488;2023-12-14T10:56:31;-23.40;62.35
60242;SHT30;46103;52.076;113.488;2023-12-14T10:59:34;-23.43;62.39
60242;SHT30;46103;52.076;113.488;2023-12-14T11:02:45;-23.44;62.37
60242;SHT30;46103;52.076;113.488;2023-12-14T11:05:49;-23.50;62.45
60242;SHT30;46103;52.076;113.488;2023-12-14T11:08:52;-23.50;62.55
60242;SHT30;46103;52.076;113.488;2023-12-14T11:11:57;-23.53;62.50
60242;SHT30;46103;52.076;113.488;2023-12-14T11:15:05;-23.53;62.51
60242;SHT30;46103;52.076;113.488;2023-12-14T11:25:11;-23.57;62.63
60242;SHT30;46103;52.076;113.488;2023-12-14T11:28:15;-23.57;62.56
60242;SHT30;46103;52.076;113.488;2023-12-14T11:31:19;-23.64;62.46
60242;SHT30;46103;52.076;113.488;2023-12-14T11:34:27;-23.66;62.95
60242;SHT30;46103;52.076;113.488;2023-12-14T11:37:32;-23.72;63.23
60242;SHT30;46103;52.076;113.488;2023-12-14T11:40:44;-23.74;63.34
60242;SHT30;46103;52.076;113.488;2023-12-14T11:43:49;-23.71;63.24
60242;SHT30;46103;52.076;113.488;2023-12-14T11:46:53;-23.76;63.09
60242;SHT30;46103;52.076;113.488;2023-12-14T11:49:57;-23.81;63.22
60242;SHT30;46103;52.076;113.488;2023-12-14T11:53:01;-23.86;63.05
60242;SHT30;46103;52.076;113.488;2023-12-14T11:56:08;-23.96;63.06
60242;SHT30;46103;52.076;113.488;2023-12-14T11:59:14;-24.03;63.29
60242;SHT30;46103;52.076;113.488;2023-12-14T12:02:23;-24.13;63.58
60242;SHT30;46103;52.076;113.488;2023-12-14T12:05:48;-24.20;63.90
60242;SHT30;46103;52.076;113.488;2023-12-14T12:08:54;-24.28;64.41
60242;SHT30;46103;52.076;113.488;2023-12-14T12:11:59;-24.27;64.60
60242;SHT30;46103;52.076;113.488;2023-12-14T12:15:05;-24.31;64.53
60242;SHT30;46103;52.076;113.488;2023-12-14T12:18:10;-24.37;64.47
60242;SHT30;46103;52.076;113.488;2023-12-14T12:21:15;-24.42;64.58
60242;SHT30;46103;52.076;113.488;2023-12-14T12:24:19;-24.42;64.78
60242;SHT30;46103;52.076;113.488;2023-12-14T12:27:29;-24.42;65.08
60242;SHT30;46103;52.076;113.488;2023-12-14T12:30:33;-24.40;64.97
60242;SHT30;46103;52.076;113.488;2023-12-14T12:33:41;-24.40;64.74
60242;SHT30;46103;52.076;113.488;2023-12-14T12:36:44;-24.37;64.94
60242;SHT30;46103;52.076;113.488;2023-12-14T12:39:48;-24.34;64.86
60242;SHT30;46103;52.076;113.488;2023-12-14T12:42:52;-24.34;64.90
60242;SHT30;46103;52.076;113.488;2023-12-14T12:45:59;-24.30;65.19
60242;SHT30;46103;52.076;113.488;2023-12-14T12:49:04;-24.30;65.38
60242;SHT30;46103;52.076;113.488;2023-12-14T12:52:10;-24.30;65.37
60242;SHT30;46103;52.076;113.488;2023-12-14T12:55:15;-24.30;65.22
60242;SHT30;46103;52.076;113.488;2023-12-14T12:58:20;-24.24;65.28
60242;SHT30;46103;52.076;113.488;2023-12-14T13:01:25;-24.23;65.04
60242;SHT30;46103;52.076;113.488;2023-12-14T13:04:30;-24.20;65.10
60242;SHT30;46103;52.076;113.488;2023-12-14T13:07:36;-24.23;65.10
60242;SHT30;46103;52.076;113.488;2023-12-14T13:10:41;-24.21;65.13
60242;SHT30;46103;52.076;113.488;2023-12-14T13:13:44;-24.23;64.91
60242;SHT30;46103;52.076;113.488;2023-12-14T13:16:50;-24.25;64.94
60242;SHT30;46103;52.076;113.488;2023-12-14T13:19:55;-24.28;65.04
60242;SHT30;46103;52.076;113.488;2023-12-14T13:22:58;-24.25;64.96
60242;SHT30;46103;52.076;113.488;2023-12-14T13:26:07;-24.24;64.78
60242;SHT30;46103;52.076;113.488;2023-12-14T13:29:15;-24.31;64.75
60242;SHT30;46103;52.076;113.488;2023-12-14T13:32:21;-24.38;64.66
60242;SHT30;46103;52.076;113.488;2023-12-14T13:35:27;-24.42;64.57
60242;SHT30;46103;52.076;113.488;2023-12-14T13:38:32;-24.47;64.67
60242;SHT30;46103;52.076;113.488;2023-12-14T13:41:53;-24.51;64.81
60242;SHT30;46103;52.076;113.488;2023-12-14T13:45:11;-24.56;64.92
60242;SHT30;46103;52.076;113.488;2023-12-14T13:48:16;-24.62;64.81
60242;SHT30;46103;52.076;113.488;2023-12-14T13:51:20;-24.63;64.90
60242;SHT30;46103;52.076;113.488;2023-12-14T13:54:24;-24.71;64.87
60242;SHT30;46103;52.076;113.488;2023-12-14T13:57:28;-24.75;64.89
60242;SHT30;46103;52.076;113.488;2023-12-14T14:00:32;-24.77;64.92
60242;SHT30;46103;52.076;113.488;2023-12-14T14:03:37;-24.93;64.62
60242;SHT30;46103;52.076;113.488;2023-12-14T14:06:42;-24.96;65.23
60242;SHT30;46103;52.076;113.488;2023-12-14T14:09:46;-25.03;65.69
60242;SHT30;46103;52.076;113.488;2023-12-14T14:12:50;-25.04;65.86
60242;SHT30;46103;52.076;113.488;2023-12-14T14:15:58;-25.10;65.86
60242;SHT30;46103;52.076;113.488;2023-12-14T14:19:02;-25.11;65.64
60242;SHT30;46103;52.076;113.488;2023-12-14T14:22:06;-25.14;65.74
60242;SHT30;46103;52.076;113.488;2023-12-14T14:25:12;-25.15;65.68
60242;SHT30;46103;52.076;113.488;2023-12-14T14:28:16;-25.15;65.73
60242;SHT30;46103;52.076;113.488;2023-12-14T14:31:22;-25.27;65.46
60242;SHT30;46103;52.076;113.488;2023-12-14T14:34:25;-25.28;65.67
60242;SHT30;46103;52.076;113.488;2023-12-14T14:37:29;-25.34;65.67
60242;SHT30;46103;52.076;113.488;2023-12-14T14:40:33;-25.42;65.34
60242;SHT30;46103;52.076;113.488;2023-12-14T14:43:37;-25.50;65.28
60242;SHT30;46103;52.076;113.488;2023-12-14T14:46:43;-25.71;64.84
60242;SHT30;46103;52.076;113.488;2023-12-14T14:49:54;-25.94;63.68
60242;SHT30;46103;52.076;113.488;2023-12-14T14:53:16;-26.12;64.23
60242;SHT30;46103;52.076;113.488;2023-12-14T14:56:22;-26.02;65.35
60242;SHT30;46103;52.076;113.488;2023-12-14T14:59:26;-26.12;65.53
60242;SHT30;46103;52.076;113.488;2023-12-14T15:02:37;-26.15;65.62
60242;SHT30;46103;52.076;113.488;2023-12-14T15:05:41;-26.18;66.19
60242;SHT30;46103;52.076;113.488;2023-12-14T15:08:46;-26.15;66.45
60242;SHT30;46103;52.076;113.488;2023-12-14T15:11:50;-26.12;66.18
60242;SHT30;46103;52.076;113.488;2023-12-14T15:14:56;-26.14;65.75
60242;SHT30;46103;52.076;113.488;2023-12-14T15:18:00;-26.19;65.63
60242;SHT30;46103;52.076;113.488;2023-12-14T15:21:11;-26.19;65.65
60242;SHT30;46103;52.076;113.488;2023-12-14T15:24:18;-26.18;65.56
60242;SHT30;46103;52.076;113.488;2023-12-14T15:27:40;-26.22;65.53
60242;SHT30;46103;52.076;113.488;2023-12-14T15:30:48;-26.26;65.67
60242;SHT30;46103;52.076;113.488;2023-12-14T15:33:55;-26.29;65.84
60242;SHT30;46103;52.076;113.488;2023-12-14T15:37:07;-26.30;65.90
60242;SHT30;46103;52.076;113.488;2023-12-14T15:40:15;-26.29;66.00
60242;SHT30;46103;52.076;113.488;2023-12-14T15:43:27;-26.33;66.13
60242;SHT30;46103;52.076;113.488;2023-12-14T15:46:40;-26.36;66.09
60242;SHT30;46103;52.076;113.488;2023-12-14T15:49:51;-26.37;66.21
60242;SHT30;46103;52.076;113.488;2023-12-14T15:53:01;-26.32;65.91
60242;SHT30;46103;52.076;113.488;2023-12-14T15:56:14;-26.32;65.32
60242;SHT30;46103;52.076;113.488;2023-12-14T15:59:25;-26.37;65.06
60242;SHT30;46103;52.076;113.488;2023-12-14T16:02:37;-26.40;65.41
60242;SHT30;46103;52.076;113.488;2023-12-14T16:05:48;-26.44;65.47
60242;SHT30;46103;52.076;113.488;2023-12-14T16:08:57;-26.49;65.48
60242;SHT30;46103;52.076;113.488;2023-12-14T16:12:14;-26.57;65.64
60242;SHT30;46103;52.076;113.488;2023-12-14T16:15:24;-26.56;66.27
60242;SHT30;46103;52.076;113.488;2023-12-14T16:18:36;-26.57;66.30
60242;SHT30;46103;52.076;113.488;2023-12-14T16:21:51;-26.56;66.56
60242;SHT30;46103;52.076;113.488;2023-12-14T16:25:02;-26.49;66.86
60242;SHT30;46103;52.076;113.488;2023-12-14T16:28:26;-26.47;66.74
60242;SHT30;46103;52.076;113.488;2023-12-14T16:31:43;-26.51;66.55
60242;SHT30;46103;52.076;113.488;2023-12-14T16:35:06;-26.65;65.57
60242;SHT30;46103;52.076;113.488;2023-12-14T16:38:20;-26.70;65.46
60242;SHT30;46103;52.076;113.488;2023-12-14T16:41:42;-26.77;65.88
60242;SHT30;46103;52.076;113.488;2023-12-14T16:44:51;-26.72;66.25
60242;SHT30;46103;52.076;113.488;2023-12-14T16:48:00;-26.72;66.57
60242;SHT30;46103;52.076;113.488;2023-12-14T16:51:11;-26.75;66.61
60242;SHT30;46103;52.076;113.488;2023-12-14T16:54:20;-26.84;66.12
60242;SHT30;46103;52.076;113.488;2023-12-14T16:57:29;-26.98;65.55
60242;SHT30;46103;52.076;113.488;2023-12-14T17:00:40;-27.02;65.57
60242;SHT30;46103;52.076;113.488;2023-12-14T17:03:49;-27.08;65.70
60242;SHT30;46103;52.076;113.488;2023-12-14T17:07:00;-27.09;64.77
60242;SHT30;46103;52.076;113.488;2023-12-14T17:10:11;-26.98;66.14
60242;SHT30;46103;52.076;113.488;2023-12-14T17:13:25;-27.03;66.46
60242;SHT30;46103;52.076;113.488;2023-12-14T17:16:47;-26.98;67.01
60242;SHT30;46103;52.076;113.488;2023-12-14T17:19:54;-27.05;66.32
60242;SHT30;46103;52.076;113.488;2023-12-14T17:23:06;-27.13;65.86
60242;SHT30;46103;52.076;113.488;2023-12-14T17:26:23;-27.12;65.15
60242;SHT30;46103;52.076;113.488;2023-12-14T17:29:40;-27.15;65.42
60242;SHT30;46103;52.076;113.488;2023-12-14T17:32:53;-27.16;66.05
60242;SHT30;46103;52.076;113.488;2023-12-14T17:36:06;-27.23;65.75
60242;SHT30;46103;52.076;113.488;2023-12-14T17:39:17;-27.31;64.80
60242;SHT30;46103;52.076;113.488;2023-12-14T17:42:36;-27.30;65.73
60242;SHT30;46103;52.076;113.488;2023-12-14T17:45:45;-27.28;66.10
60242;SHT30;46103;52.076;113.488;2023-12-14T17:48:57;-27.23;66.67
60242;SHT30;46103;52.076;113.488;2023-12-14T17:52:10;-27.19;66.77
60242;SHT30;46103;52.076;113.488;2023-12-14T17:55:24;-27.17;66.45
60242;SHT30;46103;52.076;113.488;2023-12-14T17:58:37;-27.23;66.02
60242;SHT30;46103;52.076;113.488;2023-12-14T18:01:54;-27.26;66.26
60242;SHT30;46103;52.076;113.488;2023-12-14T18:05:07;-27.20;66.48
60242;SHT30;46103;52.076;113.488;2023-12-14T18:08:30;-27.17;66.34
60242;SHT30;46103;52.076;113.488;2023-12-14T18:11:40;-27.19;66.37
60242;SHT30;46103;52.076;113.488;2023-12-14T18:14:50;-27.30;66.08
60242;SHT30;46103;52.076;113.488;2023-12-14T18:18:00;-27.31;66.17
60242;SHT30;46103;52.076;113.488;2023-12-14T18:21:09;-27.23;66.51
60242;SHT30;46103;52.076;113.488;2023-12-14T18:24:16;-27.22;66.29
60242;SHT30;46103;52.076;113.488;2023-12-14T18:27:29;-27.26;66.34
60242;SHT30;46103;52.076;113.488;2023-12-14T18:30:51;-27.22;66.23
60242;SHT30;46103;52.076;113.488;2023-12-14T18:33:59;-27.23;66.02
60242;SHT30;46103;52.076;113.488;2023-12-14T18:37:10;-27.22;65.97
60242;SHT30;46103;52.076;113.488;2023-12-14T18:40:28;-27.26;65.67
60242;SHT30;46103;52.076;113.488;2023-12-14T18:43:40;-27.28;65.79
60242;SHT30;46103;52.076;113.488;2023-12-14T18:46:52;-27.27;65.69
60242;SHT30;46103;52.076;113.488;2023-12-14T18:50:09;-27.26;65.57
60242;SHT30;46103;52.076;113.488;2023-12-14T18:53:23;-27.40;65.33
60242;SHT30;46103;52.076;113.488;2023-12-14T18:56:35;-27.44;65.32
60242;SHT30;46103;52.076;113.488;2023-12-14T18:59:52;-27.51;65.20
60242;SHT30;46103;52.076;113.488;2023-12-14T19:03:11;-27.51;65.43
60242;SHT30;46103;52.076;113.488;2023-12-14T19:06:21;-27.54;65.37